sensor_id;sensor_type;location;lat;lon;timestamp;pressure;altitude;pressure_sealevel;temperature;humidity
30302;BME280;17111;52.130;5.028;2023-02-21T00:02:31;102145.13;;;16.51;56.35
30302;BME280;17111;52.130;5.028;2023-02-21T00:05:16;102147.94;;;16.50;56.25
30302;BME280;17111;52.130;5.028;2023-02-21T00:08:02;102155.00;;;16.51;55.95
30302;BME280;17111;52.130;5.028;2023-02-21T00:10:47;102141.75;;;16.49;56.22
30302;BME280;17111;52.130;5.028;2023-02-21T00:13:35;102144.41;;;16.49;56.07
30302;BME280;17111;52.130;5.028;2023-02-21T00:16:20;102153.28;;;16.50;56.31
30302;BME280;17111;52.130;5.028;2023-02-21T00:19:06;102153.28;;;16.50;55.50
30302;BME280;17111;52.130;5.028;2023-02-21T00:21:51;102155.97;;;16.50;55.64
30302;BME280;17111;52.130;5.028;2023-02-21T00:24:37;102155.13;;;16.49;56.15
30302;BME280;17111;52.130;5.028;2023-02-21T00:27:24;102157.78;;;16.49;55.89
30302;BME280;17111;52.130;5.028;2023-02-21T00:30:10;102156.09;;;16.48;56.30
30302;BME280;17111;52.130;5.028;2023-02-21T00:32:55;102145.38;;;16.48;56.53
30302;BME280;17111;52.130;5.028;2023-02-21T00:35:41;102147.09;;;16.49;55.94
30302;BME280;17111;52.130;5.028;2023-02-21T00:38:26;102152.44;;;16.49;55.90
30302;BME280;17111;52.130;5.028;2023-02-21T00:41:11;102160.47;;;16.49;56.43
30302;BME280;17111;52.130;5.028;2023-02-21T00:43:56;102157.78;;;16.49;55.63
30302;BME280;17111;52.130;5.028;2023-02-21T00:46:43;102149.75;;;16.49;56.26
30302;BME280;17111;52.130;5.028;2023-02-21T00:49:28;102153.28;;;16.50;56.41
30302;BME280;17111;52.130;5.028;2023-02-21T00:52:13;102147.94;;;16.50;56.19
30302;BME280;17111;52.130;5.028;2023-02-21T00:54:58;102152.44;;;16.49;56.59
30302;BME280;17111;52.130;5.028;2023-02-21T00:57:43;102146.13;;;16.50;56.28
30302;BME280;17111;52.130;5.028;2023-02-21T01:00:29;102143.56;;;16.49;55.98
30302;BME280;17111;52.130;5.028;2023-02-21T01:03:14;102142.59;;;16.50;55.55
30302;BME280;17111;52.130;5.028;2023-02-21T01:05:59;102133.72;;;16.49;55.54
30302;BME280;17111;52.130;5.028;2023-02-21T01:08:45;102131.88;;;16.50;56.27
30302;BME280;17111;52.130;5.028;2023-02-21T01:11:31;102130.06;;;16.50;55.86
30302;BME280;17111;52.130;5.028;2023-02-21T01:14:16;102131.88;;;16.50;56.71
30302;BME280;17111;52.130;5.028;2023-02-21T01:17:01;102134.56;;;16.50;56.04
30302;BME280;17111;52.130;5.028;2023-02-21T01:19:47;102137.25;;;16.50;56.41
30302;BME280;17111;52.130;5.028;2023-02-21T01:22:32;102133.59;;;16.51;56.02
30302;BME280;17111;52.130;5.028;2023-02-21T01:25:17;102132.84;;;16.49;56.35
30302;BME280;17111;52.130;5.028;2023-02-21T01:28:03;102134.56;;;16.50;56.29
30302;BME280;17111;52.130;5.028;2023-02-21T01:30:48;102124.72;;;16.50;55.46
30302;BME280;17111;52.130;5.028;2023-02-21T01:33:38;102125.69;;;16.49;56.09
30302;BME280;17111;52.130;5.028;2023-02-21T01:36:24;102122.88;;;16.51;55.93
30302;BME280;17111;52.130;5.028;2023-02-21T01:39:10;102118.50;;;16.50;55.51
30302;BME280;17111;52.130;5.028;2023-02-21T01:41:56;102114.97;;;16.49;55.90
30302;BME280;17111;52.130;5.028;2023-02-21T01:44:43;102115.81;;;16.50;56.40
30302;BME280;17111;52.130;5.028;2023-02-21T01:47:29;102109.63;;;16.49;56.13
30302;BME280;17111;52.130;5.028;2023-02-21T01:50:24;102106.94;;;16.49;56.12
30302;BME280;17111;52.130;5.028;2023-02-21T01:53:16;102107.78;;;16.50;56.22
30302;BME280;17111;52.130;5.028;2023-02-21T01:56:02;102097.09;;;16.50;56.48
30302;BME280;17111;52.130;5.028;2023-02-21T01:58:50;102110.47;;;16.50;56.51
30302;BME280;17111;52.130;5.028;2023-02-21T02:01:43;102103.41;;;16.49;56.14
30302;BME280;17111;52.130;5.028;2023-02-21T02:04:31;102098.06;;;16.49;55.79
30302;BME280;17111;52.130;5.028;2023-02-21T02:07:17;102105.13;;;16.50;56.41
30302;BME280;17111;52.130;5.028;2023-02-21T02:10:04;102105.97;;;16.50;56.43
30302;BME280;17111;52.130;5.028;2023-02-21T02:18:50;102092.72;;;16.49;56.30
30302;BME280;17111;52.130;5.028;2023-02-21T02:37:34;102083.84;;;16.48;56.56
30302;BME280;17111;52.130;5.028;2023-02-21T02:43:20;102078.56;;;16.47;56.27
30302;BME280;17111;52.130;5.028;2023-02-21T02:45:53;102086.38;;;16.50;56.09
30302;BME280;17111;52.130;5.028;2023-02-21T02:48:33;102083.84;;;16.48;56.24
30302;BME280;17111;52.130;5.028;2023-02-21T02:51:05;102083.84;;;16.48;56.55
30302;BME280;17111;52.130;5.028;2023-02-21T02:53:33;102082.88;;;16.49;56.67
30302;BME280;17111;52.130;5.028;2023-02-21T02:56:06;102074.94;;;16.48;55.91
30302;BME280;17111;52.130;5.028;2023-02-21T02:58:40;102090.03;;;16.49;56.29
30302;BME280;17111;52.130;5.028;2023-02-21T03:04:22;102081.16;;;16.48;56.47
30302;BME280;17111;52.130;5.028;2023-02-21T03:09:52;102073.13;;;16.48;55.99
30302;BME280;17111;52.130;5.028;2023-02-21T03:17:43;102067.78;;;16.48;55.79
30302;BME280;17111;52.130;5.028;2023-02-21T03:20:13;102082.00;;;16.49;56.08
30302;BME280;17111;52.130;5.028;2023-02-21T03:22:42;102073.97;;;16.49;56.31
30302;BME280;17111;52.130;5.028;2023-02-21T03:25:12;102082.00;;;16.49;55.84
30302;BME280;17111;52.130;5.028;2023-02-21T03:27:41;102089.19;;;16.48;56.15
30302;BME280;17111;52.130;5.028;2023-02-21T03:30:09;102084.69;;;16.49;56.08
30302;BME280;17111;52.130;5.028;2023-02-21T03:32:44;102086.50;;;16.48;55.65
30302;BME280;17111;52.130;5.028;2023-02-21T03:35:13;102093.56;;;16.49;56.47
30302;BME280;17111;52.130;5.028;2023-02-21T03:37:43;102086.50;;;16.48;56.13
30302;BME280;17111;52.130;5.028;2023-02-21T03:40:21;102082.00;;;16.49;56.46
30302;BME280;17111;52.130;5.028;2023-02-21T03:42:50;102087.25;;;16.50;56.27
30302;BME280;17111;52.130;5.028;2023-02-21T03:45:16;102077.50;;;16.49;56.31
30302;BME280;17111;52.130;5.028;2023-02-21T03:47:43;102073.00;;;16.50;56.15
30302;BME280;17111;52.130;5.028;2023-02-21T03:50:09;102075.69;;;16.50;56.18
30302;BME280;17111;52.130;5.028;2023-02-21T03:52:36;102077.50;;;16.49;56.36
30302;BME280;17111;52.130;5.028;2023-02-21T03:55:04;102067.78;;;16.48;56.25
30302;BME280;17111;52.130;5.028;2023-02-21T03:57:31;102068.63;;;16.49;55.89
30302;BME280;17111;52.130;5.028;2023-02-21T03:59:58;102085.53;;;16.49;55.65
30302;BME280;17111;52.130;5.028;2023-02-21T04:02:25;102074.84;;;16.49;55.91
30302;BME280;17111;52.130;5.028;2023-02-21T04:04:51;102082.00;;;16.49;55.62
30302;BME280;17111;52.130;5.028;2023-02-21T04:07:19;102079.34;;;16.49;56.32
30302;BME280;17111;52.130;5.028;2023-02-21T04:09:47;102071.31;;;16.49;56.00
30302;BME280;17111;52.130;5.028;2023-02-21T04:12:14;102073.13;;;16.48;56.41
30302;BME280;17111;52.130;5.028;2023-02-21T04:14:41;102082.00;;;16.49;55.74
30302;BME280;17111;52.130;5.028;2023-02-21T04:17:08;102071.31;;;16.49;56.00
30302;BME280;17111;52.130;5.028;2023-02-21T04:19:34;102065.97;;;16.49;55.78
30302;BME280;17111;52.130;5.028;2023-02-21T04:22:01;102058.88;;;16.48;56.47
30302;BME280;17111;52.130;5.028;2023-02-21T04:24:28;102061.53;;;16.48;56.73
30302;BME280;17111;52.130;5.028;2023-02-21T04:26:54;102065.97;;;16.49;55.51
30302;BME280;17111;52.130;5.028;2023-02-21T04:29:21;102061.53;;;16.48;55.95
30302;BME280;17111;52.130;5.028;2023-02-21T04:31:47;102051.72;;;16.48;56.18
30302;BME280;17111;52.130;5.028;2023-02-21T04:34:14;102052.56;;;16.49;56.53
30302;BME280;17111;52.130;5.028;2023-02-21T04:36:41;102049.03;;;16.48;55.79
30302;BME280;17111;52.130;5.028;2023-02-21T04:39:08;102058.03;;;16.47;56.37
30302;BME280;17111;52.130;5.028;2023-02-21T04:41:34;102060.59;;;16.49;55.84
30302;BME280;17111;52.130;5.028;2023-02-21T04:44:01;102061.53;;;16.48;55.44
30302;BME280;17111;52.130;5.028;2023-02-21T04:46:28;102056.19;;;16.48;55.77
30302;BME280;17111;52.130;5.028;2023-02-21T04:48:54;102061.53;;;16.48;56.20
30302;BME280;17111;52.130;5.028;2023-02-21T04:51:23;102057.94;;;16.49;56.54
30302;BME280;17111;52.130;5.028;2023-02-21T04:53:51;102059.75;;;16.48;56.47
30302;BME280;17111;52.130;5.028;2023-02-21T04:56:19;102044.63;;;16.47;55.86
30302;BME280;17111;52.130;5.028;2023-02-21T04:58:46;102049.03;;;16.48;56.50
30302;BME280;17111;52.130;5.028;2023-02-21T05:01:15;102044.63;;;16.47;55.89
30302;BME280;17111;52.130;5.028;2023-02-21T05:03:42;102048.16;;;16.48;56.00
30302;BME280;17111;52.130;5.028;2023-02-21T05:06:09;102046.38;;;16.48;56.15
30302;BME280;17111;52.130;5.028;2023-02-21T05:08:35;102049.13;;;16.47;56.85
30302;BME280;17111;52.130;5.028;2023-02-21T05:11:02;102050.00;;;16.47;55.62
30302;BME280;17111;52.130;5.028;2023-02-21T05:13:29;102053.53;;;16.48;56.00
30302;BME280;17111;52.130;5.028;2023-02-21T05:15:55;102057.16;;;16.47;55.71
30302;BME280;17111;52.130;5.028;2023-02-21T05:18:22;102049.03;;;16.48;56.54
30302;BME280;17111;52.130;5.028;2023-02-21T05:20:54;102056.19;;;16.48;55.99
30302;BME280;17111;52.130;5.028;2023-02-21T05:23:21;102043.78;;;16.47;56.30
30302;BME280;17111;52.130;5.028;2023-02-21T05:26:08;102045.63;;;16.46;56.26
30302;BME280;17111;52.130;5.028;2023-02-21T05:28:37;102055.34;;;16.47;55.86
30302;BME280;17111;52.130;5.028;2023-02-21T05:31:05;102058.16;;;16.46;55.65
30302;BME280;17111;52.130;5.028;2023-02-21T05:33:32;102058.16;;;16.46;55.79
30302;BME280;17111;52.130;5.028;2023-02-21T05:35:58;102056.31;;;16.46;55.90
30302;BME280;17111;52.130;5.028;2023-02-21T05:38:26;102057.16;;;16.47;55.81
30302;BME280;17111;52.130;5.028;2023-02-21T05:40:53;102047.44;;;16.46;55.85
30302;BME280;17111;52.130;5.028;2023-02-21T05:43:19;102052.78;;;16.46;55.55
30302;BME280;17111;52.130;5.028;2023-02-21T05:45:46;102061.66;;;16.46;55.90
30302;BME280;17111;52.130;5.028;2023-02-21T05:48:13;102062.66;;;16.45;55.97
30302;BME280;17111;52.130;5.028;2023-02-21T05:50:40;102070.69;;;16.45;56.02
30302;BME280;17111;52.130;5.028;2023-02-21T05:53:07;102073.34;;;16.45;56.21
30302;BME280;17111;52.130;5.028;2023-02-21T05:55:36;102068.84;;;16.46;55.51
30302;BME280;17111;52.130;5.028;2023-02-21T05:58:03;102059.84;;;16.47;55.79
30302;BME280;17111;52.130;5.028;2023-02-21T06:00:29;102053.66;;;16.46;55.54
30302;BME280;17111;52.130;5.028;2023-02-21T06:02:56;102055.47;;;16.46;55.87
30302;BME280;17111;52.130;5.028;2023-02-21T06:05:23;102061.66;;;16.46;55.86
30302;BME280;17111;52.130;5.028;2023-02-21T06:07:49;102068.84;;;16.46;56.11
30302;BME280;17111;52.130;5.028;2023-02-21T06:10:17;102069.69;;;16.46;55.73
30302;BME280;17111;52.130;5.028;2023-02-21T06:12:44;102070.69;;;16.45;55.70
30302;BME280;17111;52.130;5.028;2023-02-21T06:15:11;102074.19;;;16.46;55.82
30302;BME280;17111;52.130;5.028;2023-02-21T06:17:39;102064.47;;;16.45;55.59
30302;BME280;17111;52.130;5.028;2023-02-21T06:20:09;102073.34;;;16.45;56.39
30302;BME280;17111;52.130;5.028;2023-02-21T06:22:37;102076.88;;;16.46;56.03
30302;BME280;17111;52.130;5.028;2023-02-21T06:25:04;102073.34;;;16.45;55.80
30302;BME280;17111;52.130;5.028;2023-02-21T06:27:31;102079.56;;;16.46;55.45
30302;BME280;17111;52.130;5.028;2023-02-21T06:29:57;102077.84;;;16.45;56.09
30302;BME280;17111;52.130;5.028;2023-02-21T06:32:24;102076.88;;;16.46;55.68
30302;BME280;17111;52.130;5.028;2023-02-21T06:34:50;102076.03;;;16.45;56.25
30302;BME280;17111;52.130;5.028;2023-02-21T06:37:18;102076.03;;;16.45;56.09
30302;BME280;17111;52.130;5.028;2023-02-21T06:39:45;102078.56;;;16.47;56.08
30302;BME280;17111;52.130;5.028;2023-02-21T06:42:15;102072.50;;;16.45;56.28
30302;BME280;17111;52.130;5.028;2023-02-21T06:44:46;102079.56;;;16.46;56.00
30302;BME280;17111;52.130;5.028;2023-02-21T06:47:14;102084.91;;;16.46;55.89
30302;BME280;17111;52.130;5.028;2023-02-21T06:49:41;102090.25;;;16.46;55.71
30302;BME280;17111;52.130;5.028;2023-02-21T06:52:08;102092.94;;;16.46;56.32
30302;BME280;17111;52.130;5.028;2023-02-21T06:54:35;102085.75;;;16.46;56.16
30302;BME280;17111;52.130;5.028;2023-02-21T06:57:02;102087.59;;;16.46;55.75
30302;BME280;17111;52.130;5.028;2023-02-21T06:59:29;102089.41;;;16.45;56.37
30302;BME280;17111;52.130;5.028;2023-02-21T07:01:56;102092.09;;;16.45;55.57
30302;BME280;17111;52.130;5.028;2023-02-21T07:04:23;102089.41;;;16.45;55.83
30302;BME280;17111;52.130;5.028;2023-02-21T07:06:51;102088.56;;;16.45;55.25
30302;BME280;17111;52.130;5.028;2023-02-21T07:09:18;102087.59;;;16.46;55.61
30302;BME280;17111;52.130;5.028;2023-02-21T07:11:44;102085.88;;;16.45;55.87
30302;BME280;17111;52.130;5.028;2023-02-21T07:14:12;102083.22;;;16.45;56.42
30302;BME280;17111;52.130;5.028;2023-02-21T07:16:39;102079.69;;;16.44;55.85
30302;BME280;17111;52.130;5.028;2023-02-21T07:19:06;102080.41;;;16.46;55.92
30302;BME280;17111;52.130;5.028;2023-02-21T07:21:32;102084.06;;;16.45;55.86
30302;BME280;17111;52.130;5.028;2023-02-21T07:23:59;102077.84;;;16.45;55.64
30302;BME280;17111;52.130;5.028;2023-02-21T07:26:26;102078.69;;;16.45;56.59
30302;BME280;17111;52.130;5.028;2023-02-21T07:28:52;102080.53;;;16.45;55.42
30302;BME280;17111;52.130;5.028;2023-02-21T07:31:19;102080.53;;;16.45;55.69
30302;BME280;17111;52.130;5.028;2023-02-21T07:33:46;102076.03;;;16.45;55.67
30302;BME280;17111;52.130;5.028;2023-02-21T07:36:12;102073.44;;;16.44;56.30
30302;BME280;17111;52.130;5.028;2023-02-21T07:38:39;102083.22;;;16.45;56.09
30302;BME280;17111;52.130;5.028;2023-02-21T07:41:06;102080.53;;;16.45;55.84
30302;BME280;17111;52.130;5.028;2023-02-21T07:43:32;102081.47;;;16.44;55.78
30302;BME280;17111;52.130;5.028;2023-02-21T07:45:59;102077.94;;;16.43;56.05
30302;BME280;17111;52.130;5.028;2023-02-21T07:48:26;102082.44;;;16.43;55.48
30302;BME280;17111;52.130;5.028;2023-02-21T07:50:52;102070.91;;;16.42;55.79
30302;BME280;17111;52.130;5.028;2023-02-21T07:53:19;102079.78;;;16.43;56.14
30302;BME280;17111;52.130;5.028;2023-02-21T07:55:46;102085.13;;;16.43;57.01
30302;BME280;17111;52.130;5.028;2023-02-21T07:58:12;102081.47;;;16.44;56.89
30302;BME280;17111;52.130;5.028;2023-02-21T08:00:39;102086.81;;;16.44;57.05
30302;BME280;17111;52.130;5.028;2023-02-21T08:03:06;102089.50;;;16.44;56.71
30302;BME280;17111;52.130;5.028;2023-02-21T08:05:33;102090.38;;;16.44;57.83
30302;BME280;17111;52.130;5.028;2023-02-21T08:07:59;102097.44;;;16.45;57.61
30302;BME280;17111;52.130;5.028;2023-02-21T08:10:26;102096.47;;;16.46;58.69
30302;BME280;17111;52.130;5.028;2023-02-21T08:12:53;102092.72;;;16.49;59.27
30302;BME280;17111;52.130;5.028;2023-02-21T08:15:20;102092.72;;;16.49;58.68
30302;BME280;17111;52.130;5.028;2023-02-21T08:17:48;102099.78;;;16.50;58.86
30302;BME280;17111;52.130;5.028;2023-02-21T08:20:15;102101.47;;;16.51;58.87
30302;BME280;17111;52.130;5.028;2023-02-21T08:22:43;102096.97;;;16.51;59.09
30302;BME280;17111;52.130;5.028;2023-02-21T08:25:10;102099.66;;;16.51;60.04
30302;BME280;17111;52.130;5.028;2023-02-21T08:27:38;102091.53;;;16.53;60.33
30302;BME280;17111;52.130;5.028;2023-02-21T08:30:11;102101.25;;;16.54;59.71
30302;BME280;17111;52.130;5.028;2023-02-21T08:32:40;102099.56;;;16.53;59.48
30302;BME280;17111;52.130;5.028;2023-02-21T08:35:07;102102.94;;;16.55;59.23
30302;BME280;17111;52.130;5.028;2023-02-21T08:37:34;102098.56;;;16.54;59.26
30302;BME280;17111;52.130;5.028;2023-02-21T08:40:02;102091.41;;;16.54;59.35
30302;BME280;17111;52.130;5.028;2023-02-21T08:42:29;102093.22;;;16.54;59.55
30302;BME280;17111;52.130;5.028;2023-02-21T08:44:56;102093.22;;;16.54;59.18
30302;BME280;17111;52.130;5.028;2023-02-21T08:47:22;102088.00;;;16.52;59.17
30302;BME280;17111;52.130;5.028;2023-02-21T08:49:49;102094.19;;;16.53;58.90
30302;BME280;17111;52.130;5.028;2023-02-21T08:52:17;102092.47;;;16.52;58.80
30302;BME280;17111;52.130;5.028;2023-02-21T08:54:44;102094.19;;;16.53;59.00
30302;BME280;17111;52.130;5.028;2023-02-21T08:57:11;102094.28;;;16.51;58.97
30302;BME280;17111;52.130;5.028;2023-02-21T08:59:42;102095.16;;;16.52;58.41
30302;BME280;17111;52.130;5.028;2023-02-21T09:02:21;102086.25;;;16.51;58.43
30302;BME280;17111;52.130;5.028;2023-02-21T09:04:48;102088.00;;;16.52;59.04
30302;BME280;17111;52.130;5.028;2023-02-21T09:07:15;102084.44;;;16.52;58.72
30302;BME280;17111;52.130;5.028;2023-02-21T09:09:42;102079.97;;;16.52;59.18
30302;BME280;17111;52.130;5.028;2023-02-21T09:12:09;102082.63;;;16.52;58.81
30302;BME280;17111;52.130;5.028;2023-02-21T09:14:38;102088.00;;;16.52;58.25
30302;BME280;17111;52.130;5.028;2023-02-21T09:17:07;102079.97;;;16.52;58.37
30302;BME280;17111;52.130;5.028;2023-02-21T09:19:34;102079.84;;;16.54;58.41
30302;BME280;17111;52.130;5.028;2023-02-21T09:22:01;102079.09;;;16.52;58.64
30302;BME280;17111;52.130;5.028;2023-02-21T09:24:29;102079.09;;;16.52;58.99
30302;BME280;17111;52.130;5.028;2023-02-21T09:26:58;102071.06;;;16.52;58.25
30302;BME280;17111;52.130;5.028;2023-02-21T09:29:25;102071.06;;;16.52;58.34
30302;BME280;17111;52.130;5.028;2023-02-21T09:32:03;102070.22;;;16.51;58.07
30302;BME280;17111;52.130;5.028;2023-02-21T09:34:29;102068.38;;;16.52;58.44
30302;BME280;17111;52.130;5.028;2023-02-21T09:36:56;102072.03;;;16.51;58.52
30302;BME280;17111;52.130;5.028;2023-02-21T09:39:23;102069.34;;;16.51;57.61
30302;BME280;17111;52.130;5.028;2023-02-21T09:41:50;102065.69;;;16.52;57.70
30302;BME280;17111;52.130;5.028;2023-02-21T09:44:24;102066.69;;;16.51;57.92
30302;BME280;17111;52.130;5.028;2023-02-21T09:47:04;102057.81;;;16.50;58.29
30302;BME280;17111;52.130;5.028;2023-02-21T09:49:41;102058.66;;;16.51;57.87
30302;BME280;17111;52.130;5.028;2023-02-21T09:52:26;102054.28;;;16.50;58.07
30302;BME280;17111;52.130;5.028;2023-02-21T09:54:57;102053.28;;;16.51;57.27
30302;BME280;17111;52.130;5.028;2023-02-21T09:57:25;102047.94;;;16.51;57.52
30302;BME280;17111;52.130;5.028;2023-02-21T09:59:52;102045.28;;;16.51;57.40
30302;BME280;17111;52.130;5.028;2023-02-21T10:08:12;102040.88;;;16.50;57.88
30302;BME280;17111;52.130;5.028;2023-02-21T10:10:45;102042.59;;;16.51;57.58
30302;BME280;17111;52.130;5.028;2023-02-21T10:16:25;102047.22;;;16.49;57.20
30302;BME280;17111;52.130;5.028;2023-02-21T10:21:41;102043.44;;;16.51;57.66
30302;BME280;17111;52.130;5.028;2023-02-21T10:24:15;102048.78;;;16.51;57.91
30302;BME280;17111;52.130;5.028;2023-02-21T10:26:46;102045.28;;;16.51;57.27
30302;BME280;17111;52.130;5.028;2023-02-21T10:29:23;102044.28;;;16.52;56.88
30302;BME280;17111;52.130;5.028;2023-02-21T10:31:59;102049.66;;;16.52;56.89
30302;BME280;17111;52.130;5.028;2023-02-21T10:34:30;102046.03;;;16.53;57.50
30302;BME280;17111;52.130;5.028;2023-02-21T10:37:02;102046.97;;;16.52;56.84
30302;BME280;17111;52.130;5.028;2023-02-21T10:39:35;102047.84;;;16.52;57.70
30302;BME280;17111;52.130;5.028;2023-02-21T10:42:04;102051.38;;;16.53;56.92
30302;BME280;17111;52.130;5.028;2023-02-21T10:44:33;102046.03;;;16.53;57.40
30302;BME280;17111;52.130;5.028;2023-02-21T10:47:06;102054.91;;;16.53;56.72
30302;BME280;17111;52.130;5.028;2023-02-21T10:50:00;102050.53;;;16.52;57.24
30302;BME280;17111;52.130;5.028;2023-02-21T10:52:27;102048.56;;;16.54;56.53
30302;BME280;17111;52.130;5.028;2023-02-21T10:57:30;102046.75;;;16.55;56.47
30302;BME280;17111;52.130;5.028;2023-02-21T10:59:57;102051.25;;;16.54;56.89
30302;BME280;17111;52.130;5.028;2023-02-21T11:02:38;102049.56;;;16.53;56.46
30302;BME280;17111;52.130;5.028;2023-02-21T11:05:15;102048.56;;;16.54;56.80
30302;BME280;17111;52.130;5.028;2023-02-21T11:08:14;102051.38;;;16.53;56.81
30302;BME280;17111;52.130;5.028;2023-02-21T11:10:42;102046.75;;;16.55;56.93
30302;BME280;17111;52.130;5.028;2023-02-21T11:13:15;102038.84;;;16.53;56.63
30302;BME280;17111;52.130;5.028;2023-02-21T11:15:43;102038.84;;;16.53;56.10
30302;BME280;17111;52.130;5.028;2023-02-21T11:20:42;102042.38;;;16.54;56.99
30302;BME280;17111;52.130;5.028;2023-02-21T11:26:11;102046.88;;;16.53;56.37
30302;BME280;17111;52.130;5.028;2023-02-21T11:28:40;102037.03;;;16.54;56.23
30302;BME280;17111;52.130;5.028;2023-02-21T11:31:16;102034.34;;;16.54;56.75
30302;BME280;17111;52.130;5.028;2023-02-21T11:33:51;102039.56;;;16.56;56.54
30302;BME280;17111;52.130;5.028;2023-02-21T11:36:27;102029.84;;;16.54;56.94
30302;BME280;17111;52.130;5.028;2023-02-21T11:39:00;102031.53;;;16.56;56.08
30302;BME280;17111;52.130;5.028;2023-02-21T11:41:53;102029.00;;;16.54;56.08
30302;BME280;17111;52.130;5.028;2023-02-21T11:44:39;102028.88;;;16.56;56.81
30302;BME280;17111;52.130;5.028;2023-02-21T11:47:16;102027.03;;;16.56;56.42
30302;BME280;17111;52.130;5.028;2023-02-21T11:49:53;102030.69;;;16.55;56.40
30302;BME280;17111;52.130;5.028;2023-02-21T11:52:25;102027.03;;;16.56;56.66
30302;BME280;17111;52.130;5.028;2023-02-21T11:54:55;102026.94;;;16.58;56.32
30302;BME280;17111;52.130;5.028;2023-02-21T11:57:27;102024.25;;;16.58;56.07
30302;BME280;17111;52.130;5.028;2023-02-21T12:16:35;102013.34;;;16.61;56.06
30302;BME280;17111;52.130;5.028;2023-02-21T12:22:00;102008.81;;;16.61;56.24
30302;BME280;17111;52.130;5.028;2023-02-21T12:27:33;102006.25;;;16.60;55.89
30302;BME280;17111;52.130;5.028;2023-02-21T12:38:31;101998.13;;;16.61;56.38
30302;BME280;17111;52.130;5.028;2023-02-21T12:40:45;102001.66;;;16.62;56.45
30302;BME280;17111;52.130;5.028;2023-02-21T12:51:33;101988.38;;;16.60;55.93
30302;BME280;17111;52.130;5.028;2023-02-21T12:54:15;101981.31;;;16.59;55.74
30302;BME280;17111;52.130;5.028;2023-02-21T12:56:52;101984.75;;;16.61;56.23
30302;BME280;17111;52.130;5.028;2023-02-21T12:59:28;101987.41;;;16.61;56.00
30302;BME280;17111;52.130;5.028;2023-02-21T13:02:09;101983.00;;;16.60;56.08
30302;BME280;17111;52.130;5.028;2023-02-21T13:04:47;101987.41;;;16.61;55.61
30302;BME280;17111;52.130;5.028;2023-02-21T13:07:37;101983.00;;;16.60;56.29
30302;BME280;17111;52.130;5.028;2023-02-21T13:10:19;101978.53;;;16.61;55.69
30302;BME280;17111;52.130;5.028;2023-02-21T13:15:22;101970.50;;;16.61;55.90
30302;BME280;17111;52.130;5.028;2023-02-21T13:18:10;101980.34;;;16.60;55.62
30302;BME280;17111;52.130;5.028;2023-02-21T13:20:45;101971.34;;;16.61;55.93
30302;BME280;17111;52.130;5.028;2023-02-21T13:23:14;101968.69;;;16.61;56.00
30302;BME280;17111;52.130;5.028;2023-02-21T13:25:57;101966.00;;;16.61;55.44
30302;BME280;17111;52.130;5.028;2023-02-21T13:28:28;101961.50;;;16.62;55.78
30302;BME280;17111;52.130;5.028;2023-02-21T13:31:00;101961.59;;;16.60;56.10
30302;BME280;17111;52.130;5.028;2023-02-21T13:33:39;101963.31;;;16.61;56.19
30302;BME280;17111;52.130;5.028;2023-02-21T13:41:26;101949.81;;;16.63;56.13
30302;BME280;17111;52.130;5.028;2023-02-21T13:43:54;101946.28;;;16.62;56.22
30302;BME280;17111;52.130;5.028;2023-02-21T13:49:49;101951.66;;;16.62;56.00
30302;BME280;17111;52.130;5.028;2023-02-21T14:08:34;101939.25;;;16.61;56.11
30302;BME280;17111;52.130;5.028;2023-02-21T14:11:15;101941.06;;;16.61;55.80
30302;BME280;17111;52.130;5.028;2023-02-21T14:19:00;101946.41;;;16.61;56.11
30302;BME280;17111;52.130;5.028;2023-02-21T14:21:46;101933.03;;;16.61;56.40
30302;BME280;17111;52.130;5.028;2023-02-21T14:24:26;101931.22;;;16.61;55.84
30302;BME280;17111;52.130;5.028;2023-02-21T14:27:02;101929.47;;;16.60;55.41
30302;BME280;17111;52.130;5.028;2023-02-21T14:29:39;101929.47;;;16.60;56.38
30302;BME280;17111;52.130;5.028;2023-02-21T14:37:37;101922.44;;;16.59;56.06
30302;BME280;17111;52.130;5.028;2023-02-21T14:48:14;101916.59;;;16.54;56.08
30302;BME280;17111;52.130;5.028;2023-02-21T15:05:13;101916.81;;;16.51;55.74
30302;BME280;17111;52.130;5.028;2023-02-21T15:07:52;101922.28;;;16.49;55.36
30302;BME280;17111;52.130;5.028;2023-02-21T15:10:25;101918.63;;;16.50;55.80
30302;BME280;17111;52.130;5.028;2023-02-21T15:13:01;101919.63;;;16.49;55.98
30302;BME280;17111;52.130;5.028;2023-02-21T15:15:32;101911.59;;;16.49;55.81
30302;BME280;17111;52.130;5.028;2023-02-21T15:18:09;101918.75;;;16.49;55.76
30302;BME280;17111;52.130;5.028;2023-02-21T15:20:38;101914.13;;;16.51;55.51
30302;BME280;17111;52.130;5.028;2023-02-21T15:23:12;101920.47;;;16.50;55.31
30302;BME280;17111;52.130;5.028;2023-02-21T15:25:43;101914.13;;;16.51;55.59
30302;BME280;17111;52.130;5.028;2023-02-21T15:28:30;101909.75;;;16.50;55.87
30302;BME280;17111;52.130;5.028;2023-02-21T15:31:06;101914.13;;;16.51;55.61
30302;BME280;17111;52.130;5.028;2023-02-21T15:33:38;101915.84;;;16.52;55.76
30302;BME280;17111;52.130;5.028;2023-02-21T15:36:06;101913.91;;;16.54;55.88
30302;BME280;17111;52.130;5.028;2023-02-21T15:38:40;101914.75;;;16.54;54.97
30302;BME280;17111;52.130;5.028;2023-02-21T15:41:28;101907.56;;;16.55;54.89
30302;BME280;17111;52.130;5.028;2023-02-21T15:46:31;101909.19;;;16.58;55.32
30302;BME280;17111;52.130;5.028;2023-02-21T15:49:01;101900.28;;;16.57;55.28
30302;BME280;17111;52.130;5.028;2023-02-21T15:51:29;101902.97;;;16.57;55.95
30302;BME280;17111;52.130;5.028;2023-02-21T15:56:43;101899.31;;;16.58;55.11
30302;BME280;17111;52.130;5.028;2023-02-21T15:59:24;101893.97;;;16.58;55.77
30302;BME280;17111;52.130;5.028;2023-02-21T16:04:39;101892.97;;;16.59;56.11